Japatul Valley Rd (73, 1166, 625) Station Data

Red Flag Warning: No
Fire Weather Zone: 258
SDGE Region: Mountain Empire
Lat/Lon: 32.776/-116.668

Observations

Time Wind Speed/Gust Temp(F) RH Fuel Moist Fuel Temp(F) Dewpt(F) Tmax(F) Tmin(F) Accum Precip 10-min Precip SL Press(mb)
5/24 8:30am 52 5 G 8 70° 32% - - 39° 71.2° 61.3° - - -
5/24 8:20am 61 5 G 8 70° 33% - - 39° 71.2° 61.3° - - -
5/24 8:10am 55 4 G 7 68° 40% - - 43° 71.2° 61.3° - - -
5/24 8:00am 63 3 G 5 66° 46% - - 45° 71.2° 61.3° - - -
5/24 7:50am 60 2 G 4 66° 47% - - 45° 71.2° 61.3° - - -
5/24 7:40am 52 2 G 3 66° 43% - - 43° 71.2° 61.3° - - -
5/24 7:30am 43 2 G 3 65° 42% - - 41° 71.2° 61.3° - - -
5/24 7:20am 83 2 G 2 65° 40% - - 40° 71.2° 61.3° - - -
5/24 7:10am 234 3 G 7 66° 34% - - 37° 71.2° 61.3° - - -
5/24 7:00am 252 5 G 8 66° 36% - - 39° 71.2° 61.3° - - -
5/24 6:50am 271 3 G 6 70° 29% - - 36° 71.2° 61.3° - - -
5/24 6:40am 358 4 G 5 70° 26% - - 34° 71.2° 61.3° - - -
5/24 6:30am 357 4 G 5 69° 28% - - 34° 71.2° 61.3° - - -
5/24 6:20am 23 2 G 3 68° 30% - - 35° 71.2° 61.3° - - -
5/24 6:10am 27 3 G 4 67° 31% - - 35° 71.2° 61.3° - - -
5/24 6:00am 37 2 G 3 67° 30% - - 34° 71.2° 61.3° - - -
5/24 5:50am 45 3 G 5 67° 30% - - 34° 71.2° 61.3° - - -
5/24 5:40am 44 3 G 4 64° 33% - - 34° 71.2° 61.3° - - -
5/24 5:30am 62 3 G 5 63° 33% - - 34° 71.2° 61.3° - - -
5/24 5:20am 50 3 G 5 64° 31% - - 33° 71.2° 61.3° - - -
5/24 5:10am 42 3 G 5 64° 33% - - 34° 71.2° 61.3° - - -
5/24 5:00am 56 3 G 5 64° 34% - - 35° 71.2° 61.3° - - -
5/24 4:50am 60 4 G 6 64° 34% - - 35° 71.2° 61.3° - - -
5/24 4:40am 62 3 G 5 64° 34% - - 35° 71.2° 61.3° - - -
5/24 4:30am 62 4 G 6 63° 35% - - 35° 71.2° 61.3° - - -
5/24 4:20am 63 3 G 5 62° 38% - - 36° 71.2° 61.3° - - -
5/24 4:10am 61 2 G 3 62° 38% - - 36° 71.2° 61.3° - - -
5/24 4:00am 56 3 G 4 62° 38% - - 37° 71.2° 61.5° - - -
5/24 3:50am 65 3 G 4 62° 40% - - 38° 71.2° 61.5° - - -
5/24 3:40am 68 3 G 4 66° 38% - - 39° 71.2° 62.7° - - -
5/24 3:30am 42 2 G 3 67° 35% - - 39° 71.2° 62.7° - - -
5/24 3:20am 22 1 G 2 67° 35% - - 38° 71.2° 62.7° - - -
5/24 3:10am 50 1 G 2 66° 34% - - 37° 71.2° 62.7° - - -
5/24 3:00am 299 1 G 2 70° 29% - - 36° 71.2° 62.7° - - -
5/24 2:50am 345 3 G 4 70° 28% - - 36° 71.2° 62.7° - - -
5/24 2:40am 353 4 G 4 69° 32% - - 38° 70.3° 62.7° - - -
5/24 2:30am 360 4 G 5 70° 31% - - 38° 70.3° 62.7° - - -
5/24 2:20am 1 3 G 4 67° 34% - - 38° 69.7° 62.7° - - -
5/24 2:10am 43 2 G 3 65° 40% - - 40° 68.8° 62.7° - - -
5/24 2:00am 56 1 G 2 66° 39% - - 41° 68.8° 62.7° - - -
5/24 1:50am 46 3 G 4 65° 42% - - 41° 68.8° 62.7° - - -
5/24 1:40am 5 4 G 6 67° 39% - - 42° 68.8° 62.7° - - -
5/24 1:30am 9 4 G 6 68° 38% - - 41° 68.8° 62.7° - - -
5/24 1:20am 24 3 G 5 68° 40% - - 43° 68.6° 62.7° - - -
5/24 1:10am 33 4 G 6 65° 51% - - 47° 67.1° 62.7° - - -
5/24 1:00am 64 3 G 4 63° 51% - - 45° 65.8° 62.7° - - -
5/24 12:50am 57 3 G 4 64° 51% - - 45° 65.8° 62.7° - - -
5/24 12:40am 43 2 G 4 65° 57% - - 49° 65.8° 63.5° - - -
5/24 12:30am 53 3 G 4 64° 56% - - 48° 65.8° 63.7° - - -
5/24 12:20am 48 3 G 4 65° 58% - - 50° 65.8° 64.2° - - -
5/24 12:10am 62 2 G 3 65° 59% - - 50° 65.8° 64.2° - - -
5/24 12:00am 81 2 G 3 66° 57% - - 50° 87.8° 64.4° - - -
5/23 11:50pm 77 1 G 2 66° 54% - - 49° 87.8° 64.4° - - -
5/23 11:40pm 321 0 G 1 68° 54% - - 51° 87.8° 64.4° - - -
5/23 11:30pm 305 1 G 1 68° 53% - - 51° 87.8° 64.4° - - -
5/23 11:20pm 332 1 G 2 67° 54% - - 50° 87.8° 64.4° - - -
5/23 11:10pm 359 2 G 2 68° 54% - - 51° 87.8° 64.4° - - -
5/23 11:00pm 39 0 G 2 67° 58% - - 52° 87.8° 64.4° - - -
5/23 10:50pm 48 1 G 3 66° 59% - - 52° 87.8° 64.4° - - -
5/23 10:40pm 334 1 G 1 66° 58% - - 51° 87.8° 64.4° - - -
5/23 10:30pm 350 1 G 2 67° 58% - - 52° 87.8° 64.4° - - -
5/23 10:20pm 66 0 G 2 67° 59% - - 52° 87.8° 64.4° - - -
5/23 10:10pm 61 2 G 3 66° 61% - - 52° 87.8° 64.4° - - -
5/23 10:00pm 30 3 G 4 67° 60% - - 52° 87.8° 64.4° - - -
5/23 9:50pm 28 2 G 4 68° 58% - - 53° 87.8° 64.4° - - -
5/23 9:40pm 22 2 G 3 67° 60% - - 53° 87.8° 64.4° - - -
5/23 9:30pm 24 2 G 2 67° 60% - - 53° 87.8° 64.4° - - -
5/23 9:20pm 38 2 G 2 66° 62% - - 53° 87.8° 64.4° - - -
5/23 9:10pm 325 3 G 4 67° 59% - - 52° 87.8° 64.4° - - -
5/23 9:00pm 286 3 G 4 68° 57% - - 52° 87.8° 64.4° - - -
5/23 8:50pm 271 4 G 5 69° 55% - - 52° 87.8° 64.4° - - -
5/23 8:40pm 282 2 G 4 70° 53% - - 52° 87.8° 64.4° - - -
5/23 8:30pm 269 2 G 3 70° 53% - - 52° 87.8° 64.4° - - -
5/23 8:20pm 323 3 G 4 69° 56% - - 53° 87.8° 64.4° - - -
5/23 8:10pm 352 3 G 5 69° 56% - - 53° 87.8° 64.4° - - -
5/23 8:00pm 14 1 G 3 69° 57% - - 53° 87.8° 64.4° - - -
5/23 7:50pm 20 2 G 5 70° 55% - - 53° 87.8° 64.4° - - -
5/23 7:40pm 360 4 G 5 71° 51% - - 52° 87.8° 64.4° - - -
5/23 7:30pm 341 3 G 4 73° 48% - - 52° 87.8° 64.4° - - -
5/23 7:20pm 336 3 G 4 73° 48% - - 52° 87.8° 64.4° - - -
5/23 7:10pm 286 2 G 5 73° 47% - - 52° 87.8° 64.4° - - -
5/23 7:00pm 275 3 G 6 74° 47% - - 53° 87.8° 64.4° - - -
5/23 6:50pm 286 4 G 8 75° 46% - - 53° 87.8° 64.4° - - -
5/23 6:40pm 261 5 G 10 76° 44% - - 53° 87.8° 64.4° - - -
5/23 6:30pm 255 6 G 9 77° 43% - - 53° 87.8° 64.4° - - -
5/23 6:20pm 256 6 G 11 77° 42% - - 53° 87.8° 64.4° - - -
5/23 6:10pm 266 7 G 13 78° 41% - - 52° 87.8° 64.4° - - -
5/23 6:00pm 274 6 G 12 79° 41% - - 53° 87.8° 64.4° - - -
5/23 5:50pm 269 7 G 12 80° 40% - - 53° 87.8° 64.4° - - -
5/23 5:40pm 256 6 G 11 80° 40% - - 54° 87.8° 64.4° - - -
5/23 5:30pm 260 5 G 10 80° 40% - - 54° 87.8° 64.4° - - -
5/23 5:20pm 261 5 G 8 81° 39% - - 53° 87.8° 64.4° - - -
5/23 5:10pm 268 5 G 10 80° 38% - - 53° 87.8° 64.4° - - -
5/23 5:00pm 258 6 G 10 80° 37% - - 52° 87.8° 64.4° - - -
5/23 4:50pm 266 7 G 11 80° 37% - - 51° 87.8° 64.4° - - -
5/23 4:40pm 260 7 G 13 80° 38% - - 52° 87.8° 64.4° - - -
5/23 4:30pm 265 7 G 12 79° 40% - - 53° 87.8° 64.4° - - -
5/23 4:20pm 257 8 G 13 79° 41% - - 54° 87.8° 64.4° - - -
5/23 4:10pm 264 7 G 13 79° 42% - - 55° 87.8° 64.4° - - -
5/23 4:00pm 256 7 G 11 78° 45% - - 55° 87.8° 64.4° - - -
5/23 3:50pm 255 8 G 13 78° 44% - - 55° 87.8° 64.4° - - -
5/23 3:40pm 254 8 G 12 78° 44% - - 55° 87.8° 64.4° - - -
5/23 3:30pm 255 9 G 14 77° 46% - - 55° 87.8° 64.4° - - -
5/23 3:20pm 257 9 G 15 77° 50% - - 57° 87.8° 64.4° - - -
5/23 3:10pm 256 9 G 16 77° 49% - - 57° 87.8° 64.4° - - -
5/23 3:00pm 251 10 G 17 78° 49% - - 57° 87.8° 64.4° - - -
5/23 2:50pm 253 9 G 15 78° 48% - - 57° 87.8° 64.4° - - -
5/23 2:40pm 253 8 G 14 79° 48% - - 57° 87.8° 64.4° - - -
5/23 2:30pm 249 9 G 15 78° 48% - - 57° 87.8° 64.4° - - -
5/23 2:20pm 248 9 G 14 79° 47% - - 57° 87.8° 64.4° - - -
5/23 2:10pm 254 9 G 13 79° 47% - - 57° 87.8° 64.4° - - -
5/23 2:00pm 248 9 G 15 80° 47% - - 57° 87.8° 64.4° - - -
5/23 1:50pm 258 8 G 12 80° 46% - - 58° 87.8° 64.4° - - -
5/23 1:40pm 249 9 G 14 80° 45% - - 57° 87.8° 64.4° - - -
5/23 1:30pm 245 8 G 12 81° 44% - - 57° 87.8° 64.4° - - -
5/23 1:20pm 248 8 G 12 81° 43% - - 56° 87.8° 64.4° - - -
5/23 1:10pm 254 8 G 15 81° 43% - - 56° 87.8° 64.4° - - -
5/23 1:00pm 250 9 G 16 82° 40% - - 55° 87.8° 64.4° - - -
5/23 12:50pm 254 9 G 15 83° 36% - - 53° 87.8° 64.4° - - -
5/23 12:40pm 254 8 G 14 84° 34% - - 53° 87.8° 64.4° - - -
5/23 12:30pm 260 8 G 15 85° 31% - - 51° 87.8° 64.4° - - -
5/23 12:20pm 264 8 G 14 85° 30% - - 50° 87.8° 64.4° - - -
5/23 12:10pm 257 8 G 15 85° 30% - - 49° 87.8° 64.4° - - -
5/23 12:00pm 256 8 G 14 85° 28% - - 49° 87.8° 64.4° - - -
5/23 11:50am 248 9 G 13 86° 26% - - 47° 87.8° 64.4° - - -
5/23 11:40am 262 7 G 11 87° 24% - - 46° 87.8° 64.4° - - -
5/23 11:30am 253 7 G 13 87° 24% - - 46° 87.8° 64.4° - - -
5/23 11:20am 264 5 G 10 87° 21% - - 42° 87.8° 64.4° - - -
5/23 11:10am 250 5 G 9 87° 20% - - 41° 87.4° 64.4° - - -
5/23 11:00am 234 5 G 8 86° 21% - - 42° 87.4° 64.4° - - -
5/23 10:50am 229 4 G 8 86° 22% - - 43° 87.4° 64.4° - - -
5/23 10:40am 220 3 G 6 85° 22% - - 42° 86° 64.4° - - -
5/23 10:30am 227 4 G 7 85° 22% - - 42° 85.5° 64.4° - - -
5/23 10:20am 219 3 G 5 85° 23% - - 43° 85.5° 64.4° - - -
5/23 10:10am 200 2 G 6 85° 23% - - 43° 85.5° 64.4° - - -
5/23 10:00am 198 1 G 4 84° 24% - - 43° 84.8° 64.4° - - -
5/23 9:50am 230 2 G 4 83° 23% - - 42° 83.1° 64.4° - - -
5/23 9:40am 198 2 G 4 82° 23% - - 40° 82.8° 64.4° - - -
5/23 9:30am 198 2 G 4 82° 24% - - 41° 82.5° 64.4° - - -
5/23 9:20am 161 1 G 3 81° 26% - - 43° 81.8° 64.4° - - -
5/23 9:10am 133 2 G 4 81° 26% - - 43° 81.5° 64.4° - - -
5/23 9:00am 143 1 G 4 80° 27% - - 43° 81° 64.4° - - -
5/23 8:50am 147 1 G 3 80° 28% - - 44° 80.4° 64.4° - - -
5/23 8:40am 187 1 G 3 79° 25% - - 40° 79.9° 64.4° - - -
5/23 8:30am 151 0 G 1 79° 23% - - 38° 79.9° 64.4° - - -
5/23 8:20am 82 1 G 2 79° 23% - - 38° 79.9° 64.4° - - -
5/23 8:10am 181 0 G 1 77° 25% - - 38° 78.6° 64.4° - - -
5/23 8:00am 75 0 G 0 75° 29% - - 41° 76° 64.4° - - -
5/23 7:50am 75 0 G 1 72° 34% - - 42° 74.7° 64.4° - - -
5/23 7:40am 69 1 G 2 70° 36% - - 42° 74.7° 64.4° - - -
5/23 7:30am 356 1 G 3 72° 33% - - 41° 74.7° 64.4° - - -
5/23 7:20am 1 2 G 3 72° 31% - - 40° 74.7° 64.4° - - -
5/23 7:10am 314 2 G 3 74° 23% - - 34° 74.7° 64.4° - - -
5/23 7:00am 2 2 G 3 74° 22% - - 33° 74.3° 64.4° - - -
5/23 6:50am 19 3 G 4 73° 20% - - 29° 73.9° 64.4° - - -
5/23 6:40am 22 3 G 4 71° 20% - - 29° 73.9° 64.4° - - -
5/23 6:30am 22 2 G 4 69° 25% - - 32° 73.9° 64.4° - - -
5/23 6:20am 7 2 G 3 69° 23% - - 30° 73.9° 64.4° - - -
5/23 6:10am 16 2 G 3 69° 22% - - 29° 73.9° 64.4° - - -
5/23 6:00am 28 2 G 3 67° 24% - - 29° 73.9° 64.4° - - -